SPJL

Details ICAO SPJL (JUL)
Name JULIACA
Region Peru
Timezone America/Lima (UTC-5.0)
Plans Departing 10
Arriving 25
Stats Elevation 12,552 ft / 3,826 m (AMSL)
Location -15.467104° -70.158169°
Runways 1
Magnetic Variation 6.606° W
Sunrise 2018-05-20 10:58:01 UTC / 2018-05-20 05:58:01 Local
Sunset 2018-05-20 22:19:10 UTC / 2018-05-20 17:19:10 Local
Advertisement - Login to hide

Runways

ID Width Length Bearing (true) Bearing (mag) Surface Threshold Offset Overrun Length
12 150 ft / 46 m 13,782 ft / 4,201 m 112.07° 118.68° Asphalt 0 ft / 0 m 200 ft / 61 m
30 150 ft / 46 m 13,782 ft / 4,201 m 292.06° 298.67° Asphalt 0 ft / 0 m 200 ft / 61 m

Map

Weather


0- 5 10 15 20 25 30 35+ Temperature / ° C

Clouds and Precipitation
Forecast for 2018-05-20 18:00 UTC. Updated 3 hours ago

Ground ~20,000 ft ~40,000 ft Winds

METAR

SPJL 202000Z 16004KT CAVOK 16/M09 Q1032 RMK PP000

TAF

TAF SPJL 201650Z 2018/2118 25006KT CAVOK TX16/2019Z TNM03/2110Z FM202200 12008KT CAVOK FM210300 VRB02KT CAVOK

Frequencies

Tower 118.10 MHz APP/TWR
Warning: Do not use this data for real-world aviation or navigation. No guarantee of current accuracy is given.